Terminal Aerodrome Forecast
Issued by NWS Wakefield, VA

Home | Current Version | Previous Version | Text Only | Print | Product List | Glossary On
Versions: 1 2 3 4 5 6 7 8 9 10 11
000
FTUS41 KAKQ 281600 AAA
TAFECG
TAF AMD
KECG 281626Z 2816/2912 23011KT P6SM SCT040 OVC120
     FM281900 24010KT P6SM -RA OVC050
     FM290000 25006KT P6SM OVC030
     FM290700 01010KT 3SM -RA BR OVC015=

USA.gov is the U.S. government's official web portal to all federal, state and local government web resources and services.